Time;durP1;ratioP1;P1;durP2;ratioP2;P2;SDS_P1;SDS_P2;PMS_P1;PMS_P2;Temp;Humidity;BMP_temperature;BMP_pressure;BME280_temperature;BME280_humidity;BME280_pressure;Samples;Min_cycle;Max_cycle;Signal;HPM_P1;HPM_P2
2021/11/03 00:01:46;;;;;;;;;;;20.90;61.10;;;;;;5073211;28;1821;-68
2021/11/03 00:04:11;;;;;;;;;;;20.90;61.20;;;;;;5056016;28;1408;-68
2021/11/03 00:06:38;;;;;;;;;;;20.90;61.20;;;;;;5073445;28;1902;-67
2021/11/03 00:09:03;;;;;;;;;;;20.90;61.20;;;;;;5055727;28;1652;-68
2021/11/03 00:11:29;;;;;;;;;;;20.90;61.20;;;;;;5054761;28;1652;-68
2021/11/03 00:13:54;;;;;;;;;;;20.90;61.20;;;;;;5055724;28;1378;-68
2021/11/03 00:16:20;;;;;;;;;;;20.90;61.30;;;;;;5072172;28;1638;-68
2021/11/03 00:18:45;;;;;;;;;;;20.90;61.20;;;;;;5035501;28;1354;-68
2021/11/03 00:21:11;;;;;;;;;;;20.90;61.30;;;;;;5052903;28;1445;-68
2021/11/03 00:23:36;;;;;;;;;;;20.90;61.30;;;;;;5053359;28;1611;-68
2021/11/03 00:26:02;;;;;;;;;;;20.90;61.40;;;;;;5053133;28;1961;-68
2021/11/03 00:28:28;;;;;;;;;;;20.90;61.40;;;;;;5035563;28;1436;-68
2021/11/03 00:30:55;;;;;;;;;;;20.90;61.40;;;;;;5052967;28;1669;-68
2021/11/03 00:33:21;;;;;;;;;;;20.80;61.40;;;;;;5053068;28;2316;-68
2021/11/03 00:35:46;;;;;;;;;;;20.80;61.40;;;;;;5035292;28;1633;-68
2021/11/03 00:38:11;;;;;;;;;;;20.80;61.40;;;;;;5072587;28;1425;-68
2021/11/03 00:40:37;;;;;;;;;;;20.80;61.40;;;;;;5073196;28;1583;-68
2021/11/03 00:43:02;;;;;;;;;;;20.80;61.50;;;;;;5054938;28;1674;-68
2021/11/03 00:45:28;;;;;;;;;;;20.80;61.50;;;;;;5054975;28;1914;-68
2021/11/03 00:47:53;;;;;;;;;;;20.80;61.50;;;;;;5072891;28;1465;-68
2021/11/03 00:50:19;;;;;;;;;;;20.80;61.50;;;;;;5072824;28;1370;-68
2021/11/03 00:52:44;;;;;;;;;;;20.80;61.60;;;;;;5054599;28;1680;-68
2021/11/03 00:55:10;;;;;;;;;;;20.80;61.60;;;;;;5073046;28;1586;-68
2021/11/03 00:57:35;;;;;;;;;;;20.80;61.60;;;;;;5072769;28;1377;-67
2021/11/03 01:00:01;;;;;;;;;;;20.80;61.60;;;;;;5072829;28;1643;-68
2021/11/03 01:02:26;;;;;;;;;;;20.80;61.60;;;;;;5054409;28;1380;-68
2021/11/03 01:04:52;;;;;;;;;;;20.80;61.60;;;;;;5072726;28;1938;-68
2021/11/03 01:07:17;;;;;;;;;;;20.80;61.60;;;;;;5072815;28;1489;-68
2021/11/03 01:09:42;;;;;;;;;;;20.80;61.60;;;;;;5072813;28;1156;-68
2021/11/03 01:12:08;;;;;;;;;;;20.80;61.60;;;;;;5054425;28;1634;-68
2021/11/03 01:14:34;;;;;;;;;;;20.80;61.70;;;;;;5054782;28;1381;-68
2021/11/03 01:16:59;;;;;;;;;;;20.80;61.70;;;;;;5066600;28;1533;-68
2021/11/03 01:19:25;;;;;;;;;;;20.80;61.70;;;;;;5034763;28;1349;-68
2021/11/03 01:21:50;;;;;;;;;;;20.80;61.70;;;;;;5034470;28;1409;-67
2021/11/03 01:24:16;;;;;;;;;;;20.80;61.70;;;;;;5055885;28;1331;-67
2021/11/03 01:26:41;;;;;;;;;;;20.80;61.70;;;;;;5056578;28;1913;-68
2021/11/03 01:29:07;;;;;;;;;;;20.80;61.70;;;;;;5056750;28;1643;-68
2021/11/03 01:31:32;;;;;;;;;;;20.80;61.80;;;;;;5038199;28;1675;-67
2021/11/03 01:33:59;;;;;;;;;;;20.70;61.70;;;;;;5031043;28;1738;-67
2021/11/03 01:36:24;;;;;;;;;;;20.70;61.70;;;;;;5056604;28;1409;-68
2021/11/03 01:38:50;;;;;;;;;;;20.70;61.80;;;;;;5056489;28;1095;-68
2021/11/03 01:41:15;;;;;;;;;;;20.70;61.80;;;;;;5056078;28;1423;-68
2021/11/03 01:43:42;;;;;;;;;;;20.70;61.80;;;;;;5056286;28;1395;-67
2021/11/03 01:46:21;;;;;;;;;;;20.70;61.80;;;;;;5038400;28;1906;-67
2021/11/03 01:48:47;;;;;;;;;;;20.70;61.80;;;;;;5038511;28;1592;-67
2021/11/03 01:51:19;;;;;;;;;;;20.70;61.80;;;;;;5038069;28;1612;-67
2021/11/03 01:53:44;;;;;;;;;;;20.70;61.80;;;;;;5038495;28;1576;-68
2021/11/03 01:56:10;;;;;;;;;;;20.70;61.80;;;;;;5038205;28;1355;-68
2021/11/03 01:58:38;;;;;;;;;;;20.70;61.80;;;;;;5038357;28;1485;-68
2021/11/03 02:01:04;;;;;;;;;;;20.70;61.90;;;;;;5055746;28;1634;-68
2021/11/03 02:03:29;;;;;;;;;;;20.70;61.90;;;;;;5037862;28;1365;-68
2021/11/03 02:05:58;;;;;;;;;;;20.70;61.90;;;;;;5055865;28;1906;-67
2021/11/03 02:08:24;;;;;;;;;;;20.70;61.90;;;;;;5038299;28;1452;-68
2021/11/03 02:10:49;;;;;;;;;;;20.70;61.90;;;;;;5055412;28;1503;-67
2021/11/03 02:13:15;;;;;;;;;;;20.70;61.90;;;;;;5055699;28;1542;-67
2021/11/03 02:15:40;;;;;;;;;;;20.70;62.70;;;;;;5046641;28;1296;-67
2021/11/03 02:18:06;;;;;;;;;;;20.70;61.90;;;;;;5042505;28;1685;-68
2021/11/03 02:20:31;;;;;;;;;;;20.70;62.00;;;;;;5037942;28;1705;-68
2021/11/03 02:23:12;;;;;;;;;;;20.60;61.90;;;;;;5037278;28;1583;-68
2021/11/03 02:25:43;;;;;;;;;;;20.70;62.00;;;;;;5055300;28;1953;-67
2021/11/03 02:28:09;;;;;;;;;;;20.70;62.00;;;;;;5054834;28;1791;-68
2021/11/03 02:30:35;;;;;;;;;;;20.60;61.90;;;;;;5033667;28;1313;-68
2021/11/03 02:33:05;;;;;;;;;;;20.70;62.00;;;;;;5053860;28;1360;-68
2021/11/03 02:35:30;;;;;;;;;;;20.70;62.00;;;;;;5045461;28;1507;-69
2021/11/03 02:37:56;;;;;;;;;;;20.60;62.00;;;;;;5063539;28;1231;-68
2021/11/03 02:40:21;;;;;;;;;;;20.70;62.00;;;;;;5047792;28;1315;-69
2021/11/03 02:42:51;;;;;;;;;;;20.60;62.00;;;;;;5065613;28;1339;-68
2021/11/03 02:45:18;;;;;;;;;;;20.60;62.00;;;;;;5063269;28;1969;-67
2021/11/03 02:47:43;;;;;;;;;;;20.60;62.00;;;;;;5046356;28;1335;-68
2021/11/03 02:50:09;;;;;;;;;;;20.70;62.10;;;;;;5047218;28;1308;-68
2021/11/03 02:52:35;;;;;;;;;;;20.60;62.00;;;;;;5064104;28;1326;-69
2021/11/03 02:55:00;;;;;;;;;;;20.70;62.10;;;;;;5062986;28;1257;-68
2021/11/03 02:57:26;;;;;;;;;;;20.60;62.00;;;;;;5063619;28;1325;-68
2021/11/03 02:59:52;;;;;;;;;;;20.60;62.00;;;;;;5062400;28;1419;-68
2021/11/03 03:02:17;;;;;;;;;;;20.60;62.00;;;;;;5067195;28;1354;-67
2021/11/03 03:04:44;;;;;;;;;;;20.60;62.10;;;;;;5047616;28;1443;-69
2021/11/03 03:07:10;;;;;;;;;;;20.60;62.10;;;;;;5045187;28;1898;-69
2021/11/03 03:09:35;;;;;;;;;;;20.60;62.10;;;;;;5043579;28;1313;-68
2021/11/03 03:12:02;;;;;;;;;;;20.60;62.10;;;;;;5048822;28;1331;-68
2021/11/03 03:14:28;;;;;;;;;;;20.60;62.10;;;;;;5047586;28;1337;-68
2021/11/03 03:16:53;;;;;;;;;;;20.60;62.10;;;;;;5067601;28;1426;-68
2021/11/03 03:19:19;;;;;;;;;;;20.60;62.10;;;;;;5047355;28;1325;-69
2021/11/03 03:21:44;;;;;;;;;;;20.60;62.10;;;;;;5043325;28;1376;-69
2021/11/03 03:24:10;;;;;;;;;;;20.60;62.10;;;;;;5045510;28;1839;-68
2021/11/03 03:26:35;;;;;;;;;;;20.60;62.10;;;;;;5067307;28;1961;-68
2021/11/03 03:29:01;;;;;;;;;;;20.60;62.20;;;;;;5065019;28;1438;-69
2021/11/03 03:31:26;;;;;;;;;;;20.60;62.20;;;;;;5048955;28;1391;-69
2021/11/03 03:33:52;;;;;;;;;;;20.60;62.20;;;;;;5060470;28;1324;-67
2021/11/03 03:36:18;;;;;;;;;;;20.60;62.20;;;;;;5072195;28;1317;-67
2021/11/03 03:38:43;;;;;;;;;;;20.60;62.20;;;;;;5056471;28;1350;-67
2021/11/03 03:41:09;;;;;;;;;;;20.60;62.20;;;;;;5055705;28;1297;-67
2021/11/03 03:43:34;;;;;;;;;;;20.60;62.20;;;;;;5056136;28;1343;-67
2021/11/03 03:45:59;;;;;;;;;;;20.60;62.30;;;;;;5072957;28;1882;-67
2021/11/03 03:48:25;;;;;;;;;;;20.60;62.20;;;;;;5073933;28;1285;-67
2021/11/03 03:50:53;;;;;;;;;;;20.60;62.20;;;;;;5073449;28;1281;-67
2021/11/03 03:53:19;;;;;;;;;;;20.60;62.30;;;;;;5073605;28;1245;-67
2021/11/03 03:55:44;;;;;;;;;;;20.60;62.30;;;;;;5073732;28;1386;-67
2021/11/03 03:58:09;;;;;;;;;;;20.60;62.30;;;;;;5055706;28;1334;-67
2021/11/03 04:00:35;;;;;;;;;;;20.60;62.30;;;;;;5073497;28;1312;-67
2021/11/03 04:03:00;;;;;;;;;;;20.50;62.20;;;;;;5073251;28;1395;-66
2021/11/03 04:05:26;;;;;;;;;;;20.60;62.30;;;;;;5073499;28;2327;-67
2021/11/03 04:07:51;;;;;;;;;;;20.60;62.30;;;;;;5055594;28;1416;-67
2021/11/03 04:10:17;;;;;;;;;;;20.60;62.30;;;;;;5073473;28;1255;-67
2021/11/03 04:12:42;;;;;;;;;;;20.60;62.30;;;;;;5055346;28;1436;-66
2021/11/03 04:15:08;;;;;;;;;;;20.60;62.30;;;;;;5073531;28;1191;-69
2021/11/03 04:17:33;;;;;;;;;;;20.60;62.30;;;;;;5044779;28;1303;-70
2021/11/03 04:19:58;;;;;;;;;;;20.60;62.20;;;;;;5053079;28;1123;-70
2021/11/03 04:22:24;;;;;;;;;;;20.60;62.20;;;;;;5035016;28;1348;-69
2021/11/03 04:24:49;;;;;;;;;;;20.60;62.20;;;;;;5053161;28;1337;-69
2021/11/03 04:27:15;;;;;;;;;;;20.60;62.10;;;;;;5053035;28;1965;-70
2021/11/03 04:29:40;;;;;;;;;;;20.60;62.10;;;;;;5035365;28;1322;-67
2021/11/03 04:32:06;;;;;;;;;;;20.60;62.20;;;;;;5053279;28;1249;-68
2021/11/03 04:34:31;;;;;;;;;;;20.60;62.10;;;;;;5053025;28;1353;-68
2021/11/03 04:36:56;;;;;;;;;;;20.60;62.10;;;;;;5052784;28;1289;-69
2021/11/03 04:39:22;;;;;;;;;;;20.60;62.10;;;;;;5053336;28;1344;-68
2021/11/03 04:41:47;;;;;;;;;;;20.60;62.10;;;;;;5052698;28;1254;-67
2021/11/03 04:44:13;;;;;;;;;;;20.60;62.10;;;;;;5034933;28;1358;-67
2021/11/03 04:46:38;;;;;;;;;;;20.60;62.10;;;;;;5034987;28;1891;-67
2021/11/03 04:49:04;;;;;;;;;;;20.60;62.00;;;;;;5035235;28;1254;-67
2021/11/03 04:51:29;;;;;;;;;;;20.60;62.00;;;;;;5052545;28;1299;-67
2021/11/03 04:53:55;;;;;;;;;;;20.60;62.00;;;;;;5052409;28;1382;-67
2021/11/03 04:56:20;;;;;;;;;;;20.60;62.00;;;;;;5034677;28;1353;-67
2021/11/03 04:58:47;;;;;;;;;;;20.60;62.00;;;;;;5053196;28;1306;-70
2021/11/03 05:01:13;;;;;;;;;;;20.60;62.00;;;;;;5052466;28;1250;-70
2021/11/03 05:03:38;;;;;;;;;;;20.60;62.10;;;;;;5034903;28;1349;-70
2021/11/03 05:06:04;;;;;;;;;;;20.60;62.00;;;;;;5052700;28;1942;-69
2021/11/03 05:08:30;;;;;;;;;;;20.60;62.00;;;;;;5052761;28;1353;-69
2021/11/03 05:10:55;;;;;;;;;;;20.60;62.00;;;;;;5034855;28;1252;-69
2021/11/03 05:13:21;;;;;;;;;;;20.60;62.00;;;;;;5052527;28;1258;-68
2021/11/03 05:15:46;;;;;;;;;;;20.60;62.00;;;;;;5044618;28;1170;-67
2021/11/03 05:18:12;;;;;;;;;;;20.60;62.00;;;;;;5037869;28;1510;-67
2021/11/03 05:20:37;;;;;;;;;;;20.60;62.00;;;;;;5047136;28;1302;-68
2021/11/03 05:23:03;;;;;;;;;;;20.60;62.00;;;;;;5084029;23;3654;-69
2021/11/03 05:25:29;;;;;;;;;;;20.60;62.10;;;;;;5042147;28;2226;-70
2021/11/03 05:27:54;;;;;;;;;;;20.60;62.00;;;;;;5031725;28;1915;-70
2021/11/03 05:30:21;;;;;;;;;;;20.60;62.00;;;;;;5034794;28;1680;-68
2021/11/03 05:32:47;;;;;;;;;;;20.70;62.00;;;;;;5034361;28;1426;-68
2021/11/03 05:35:12;;;;;;;;;;;20.70;61.90;;;;;;5034361;28;1589;-68
2021/11/03 05:37:38;;;;;;;;;;;20.70;61.90;;;;;;5052631;28;1720;-65
2021/11/03 05:40:04;;;;;;;;;;;20.70;61.80;;;;;;5034526;28;1349;-65
2021/11/03 05:42:29;;;;;;;;;;;20.70;61.70;;;;;;5034352;28;1251;-65
2021/11/03 05:44:54;;;;;;;;;;;20.70;61.60;;;;;;5052436;28;1381;-67
2021/11/03 05:47:21;;;;;;;;;;;20.70;61.50;;;;;;5052254;28;1894;-68
2021/11/03 05:49:46;;;;;;;;;;;20.80;61.50;;;;;;5052575;28;1647;-68
2021/11/03 05:52:12;;;;;;;;;;;20.80;61.50;;;;;;5034238;28;1684;-68
2021/11/03 05:54:37;;;;;;;;;;;20.80;61.40;;;;;;5034303;28;1633;-68
2021/11/03 05:57:03;;;;;;;;;;;20.80;61.40;;;;;;5052158;28;1661;-69
2021/11/03 05:59:28;;;;;;;;;;;20.80;61.20;;;;;;5052569;28;1577;-70
2021/11/03 06:01:55;;;;;;;;;;;20.80;61.20;;;;;;5051802;28;1457;-69
2021/11/03 06:04:21;;;;;;;;;;;20.80;61.20;;;;;;5052189;28;1742;-68
2021/11/03 06:06:46;;;;;;;;;;;20.90;61.20;;;;;;5051865;28;1941;-69
2021/11/03 06:09:12;;;;;;;;;;;20.80;61.10;;;;;;5053441;28;1810;-69
2021/11/03 06:11:38;;;;;;;;;;;20.90;61.20;;;;;;5055684;28;1572;-68
2021/11/03 06:14:04;;;;;;;;;;;20.90;61.10;;;;;;5038087;28;1696;-69
2021/11/03 06:16:29;;;;;;;;;;;20.90;61.10;;;;;;5055714;28;1632;-70
2021/11/03 06:18:54;;;;;;;;;;;20.90;61.00;;;;;;5055807;28;1650;-71
2021/11/03 06:21:20;;;;;;;;;;;20.90;61.00;;;;;;5055420;28;1392;-67
2021/11/03 06:23:45;;;;;;;;;;;20.90;61.00;;;;;;5037771;28;1571;-68
2021/11/03 06:26:12;;;;;;;;;;;20.90;61.00;;;;;;5055601;28;1959;-68
2021/11/03 06:28:37;;;;;;;;;;;20.90;60.90;;;;;;5055667;28;1460;-68
2021/11/03 06:31:03;;;;;;;;;;;20.90;60.90;;;;;;5055274;28;1326;-68
2021/11/03 06:33:28;;;;;;;;;;;20.90;60.90;;;;;;5055457;28;1644;-68
2021/11/03 06:35:54;;;;;;;;;;;20.90;60.90;;;;;;5055574;28;1451;-68
2021/11/03 06:38:20;;;;;;;;;;;20.90;60.80;;;;;;5037718;28;1632;-68
2021/11/03 06:40:45;;;;;;;;;;;21.00;60.90;;;;;;5055296;28;1693;-68
2021/11/03 06:43:11;;;;;;;;;;;20.90;60.80;;;;;;5055154;28;1670;-68
2021/11/03 06:45:36;;;;;;;;;;;21.00;60.80;;;;;;5055294;28;1894;-66
2021/11/03 06:48:02;;;;;;;;;;;21.00;60.80;;;;;;5055318;28;1661;-66
2021/11/03 06:50:29;;;;;;;;;;;21.00;60.80;;;;;;5055272;28;1577;-67
2021/11/03 06:52:55;;;;;;;;;;;21.00;60.80;;;;;;5054815;28;1340;-67
2021/11/03 06:55:21;;;;;;;;;;;21.00;60.70;;;;;;5037567;28;1575;-67
2021/11/03 06:57:46;;;;;;;;;;;21.00;60.70;;;;;;5055129;28;1202;-67
2021/11/03 07:00:13;;;;;;;;;;;21.00;60.70;;;;;;5037573;28;1622;-67
2021/11/03 07:02:39;;;;;;;;;;;21.00;60.70;;;;;;5047160;28;2139;-68
2021/11/03 07:05:04;;;;;;;;;;;21.00;60.70;;;;;;5037133;28;1890;-67
2021/11/03 07:07:30;;;;;;;;;;;21.00;59.50;;;;;;5037122;28;1560;-68
2021/11/03 07:09:55;;;;;;;;;;;21.00;58.80;;;;;;5054954;28;1552;-67
2021/11/03 07:12:21;;;;;;;;;;;21.00;57.50;;;;;;5054460;28;1594;-67
2021/11/03 07:14:46;;;;;;;;;;;21.00;57.30;;;;;;5054630;28;1347;-68
2021/11/03 07:17:12;;;;;;;;;;;21.00;57.40;;;;;;5054415;28;1646;-67
2021/11/03 07:19:39;;;;;;;;;;;21.00;57.50;;;;;;5054715;28;1611;-69
2021/11/03 07:22:04;;;;;;;;;;;21.00;57.60;;;;;;5054494;28;1647;-68
2021/11/03 07:24:29;;;;;;;;;;;21.00;57.80;;;;;;5054508;28;1531;-68
2021/11/03 07:26:55;;;;;;;;;;;21.00;57.80;;;;;;5054618;28;1905;-68
2021/11/03 07:29:21;;;;;;;;;;;21.00;58.00;;;;;;5054648;28;1612;-67
2021/11/03 07:31:47;;;;;;;;;;;21.00;58.20;;;;;;5054082;28;1401;-68
2021/11/03 07:34:12;;;;;;;;;;;21.00;58.30;;;;;;5054258;28;1353;-68
2021/11/03 07:36:38;;;;;;;;;;;21.00;58.50;;;;;;5054593;28;1645;-67
2021/11/03 07:39:03;;;;;;;;;;;21.00;58.70;;;;;;5036520;28;1670;-67
2021/11/03 07:41:29;;;;;;;;;;;21.00;58.70;;;;;;5036271;28;1584;-67
2021/11/03 07:43:54;;;;;;;;;;;21.10;58.80;;;;;;5036402;28;1620;-67
2021/11/03 07:46:21;;;;;;;;;;;21.20;58.70;;;;;;5053999;28;1937;-67
2021/11/03 07:48:47;;;;;;;;;;;21.20;58.60;;;;;;5054098;28;1586;-67
2021/11/03 07:51:15;;;;;;;;;;;21.30;58.60;;;;;;5036062;28;1586;-68
2021/11/03 07:53:41;;;;;;;;;;;21.50;58.50;;;;;;5053860;28;1503;-69
2021/11/03 07:56:07;;;;;;;;;;;21.50;58.30;;;;;;5053922;28;1422;-69
2021/11/03 07:58:34;;;;;;;;;;;21.60;58.20;;;;;;5036150;28;1344;-69
2021/11/03 08:00:59;;;;;;;;;;;21.70;58.00;;;;;;5035651;28;1680;-69
2021/11/03 08:03:26;;;;;;;;;;;21.80;57.90;;;;;;5053576;28;1653;-69
2021/11/03 08:05:52;;;;;;;;;;;21.90;57.70;;;;;;5036290;28;1924;-69
2021/11/03 08:08:19;;;;;;;;;;;21.90;57.60;;;;;;5053776;28;1645;-68
2021/11/03 08:10:46;;;;;;;;;;;22.00;57.50;;;;;;5035704;28;1621;-69
2021/11/03 08:13:16;;;;;;;;;;;22.10;57.40;;;;;;5053524;28;1518;-68
2021/11/03 08:15:42;;;;;;;;;;;22.10;57.30;;;;;;5036404;28;1684;-69
2021/11/03 08:18:08;;;;;;;;;;;22.20;57.20;;;;;;5051629;28;2027;-67
2021/11/03 08:20:33;;;;;;;;;;;22.20;57.10;;;;;;5035407;28;1657;-68
2021/11/03 08:22:59;;;;;;;;;;;22.20;57.00;;;;;;5033998;28;2162;-68
2021/11/03 08:25:24;;;;;;;;;;;22.30;57.00;;;;;;5053249;28;1965;-66
2021/11/03 08:27:50;;;;;;;;;;;22.30;57.00;;;;;;5035087;28;1738;-66
2021/11/03 08:30:16;;;;;;;;;;;22.40;56.90;;;;;;5052728;28;1414;-67
2021/11/03 08:32:43;;;;;;;;;;;22.40;56.80;;;;;;5034559;28;1139;-67
2021/11/03 08:35:09;;;;;;;;;;;22.40;56.80;;;;;;5053468;28;1367;-67
2021/11/03 08:37:35;;;;;;;;;;;22.40;56.80;;;;;;5035587;28;1699;-67
2021/11/03 08:40:00;;;;;;;;;;;22.40;56.70;;;;;;5035416;28;1388;-67
2021/11/03 08:42:26;;;;;;;;;;;22.50;56.70;;;;;;5035069;28;1612;-67
2021/11/03 08:44:51;;;;;;;;;;;22.50;56.70;;;;;;5053032;28;1575;-66
2021/11/03 08:47:16;;;;;;;;;;;22.50;56.80;;;;;;5053056;28;1980;-67
2021/11/03 08:49:42;;;;;;;;;;;22.50;56.70;;;;;;5053207;28;1639;-67
2021/11/03 08:52:07;;;;;;;;;;;22.50;56.80;;;;;;5052782;28;1512;-66
2021/11/03 08:54:34;;;;;;;;;;;22.50;56.80;;;;;;5052654;28;1571;-67
2021/11/03 08:56:59;;;;;;;;;;;22.50;56.70;;;;;;5034883;28;1205;-69
2021/11/03 08:59:25;;;;;;;;;;;22.50;56.80;;;;;;5034997;28;1580;-69
2021/11/03 09:01:51;;;;;;;;;;;22.50;56.80;;;;;;5052632;28;1728;-69
2021/11/03 09:04:16;;;;;;;;;;;22.50;56.80;;;;;;5052889;28;1394;-69
2021/11/03 09:06:41;;;;;;;;;;;22.50;56.80;;;;;;5052778;28;1902;-68
2021/11/03 09:09:07;;;;;;;;;;;22.50;56.80;;;;;;5052852;28;1293;-68
2021/11/03 09:11:32;;;;;;;;;;;22.50;56.80;;;;;;5034751;28;1190;-68
2021/11/03 09:13:58;;;;;;;;;;;22.50;56.70;;;;;;5034917;28;1670;-69
2021/11/03 09:16:23;;;;;;;;;;;22.50;56.80;;;;;;5052711;28;1480;-69
2021/11/03 09:18:49;;;;;;;;;;;22.50;56.80;;;;;;5035050;28;1644;-68
2021/11/03 09:21:15;;;;;;;;;;;22.50;56.90;;;;;;5052141;28;1404;-70
2021/11/03 09:23:40;;;;;;;;;;;22.40;56.80;;;;;;5051850;28;1380;-69
2021/11/03 09:26:06;;;;;;;;;;;22.50;56.90;;;;;;5034853;28;1959;-69
2021/11/03 09:28:32;;;;;;;;;;;22.50;57.00;;;;;;5052706;28;1573;-69
2021/11/03 09:30:57;;;;;;;;;;;22.40;57.00;;;;;;5034635;28;1273;-69
2021/11/03 09:33:23;;;;;;;;;;;22.40;57.00;;;;;;5052531;28;1590;-69
2021/11/03 09:35:49;;;;;;;;;;;22.40;57.10;;;;;;5052704;28;1682;-69
2021/11/03 09:38:16;;;;;;;;;;;22.40;57.20;;;;;;5034702;28;1617;-69
2021/11/03 09:40:48;;;;;;;;;;;22.30;57.20;;;;;;5052440;28;1654;-68
2021/11/03 09:43:17;;;;;;;;;;;22.30;57.30;;;;;;5034655;28;1682;-68
2021/11/03 09:45:43;;;;;;;;;;;22.30;57.40;;;;;;5053986;28;1968;-69
2021/11/03 09:48:15;;;;;;;;;;;22.30;57.40;;;;;;5056289;28;1576;-69
2021/11/03 09:50:46;;;;;;;;;;;22.30;57.50;;;;;;5038362;28;1609;-69
2021/11/03 09:53:17;;;;;;;;;;;22.20;57.50;;;;;;5036765;28;1404;-69
2021/11/03 09:55:42;;;;;;;;;;;22.20;57.60;;;;;;5052495;28;1680;-69
2021/11/03 09:58:24;;;;;;;;;;;22.20;57.60;;;;;;5038075;28;1301;-69
2021/11/03 10:00:55;;;;;;;;;;;22.20;57.70;;;;;;5037990;28;1228;-69
2021/11/03 10:03:26;;;;;;;;;;;22.20;57.70;;;;;;5038044;28;1354;-69
2021/11/03 10:06:13;;;;;;;;;;;22.20;57.70;;;;;;5055629;28;1965;-69
2021/11/03 10:08:43;;;;;;;;;;;22.20;57.70;;;;;;5038033;28;1095;-69
2021/11/03 10:11:14;;;;;;;;;;;22.20;57.70;;;;;;5037692;28;1500;-69
2021/11/03 10:13:39;;;;;;;;;;;22.20;57.70;;;;;;5038084;28;1319;-69
2021/11/03 10:16:14;;;;;;;;;;;22.20;57.70;;;;;;5037852;28;1197;-69
2021/11/03 10:18:52;;;;;;;;;;;22.20;57.70;;;;;;5055456;28;1278;-69
2021/11/03 10:21:21;;;;;;;;;;;22.30;57.70;;;;;;5055314;28;1345;-69
2021/11/03 10:23:59;;;;;;;;;;;22.30;57.70;;;;;;5037427;28;1314;-69
2021/11/03 10:26:25;;;;;;;;;;;22.30;57.70;;;;;;5055553;28;1902;-69
2021/11/03 10:29:04;;;;;;;;;;;22.30;57.60;;;;;;5037457;28;1003;-69
2021/11/03 10:31:40;;;;;;;;;;;22.30;57.60;;;;;;5036980;28;1413;-69
2021/11/03 10:34:17;;;;;;;;;;;22.30;57.60;;;;;;5037636;28;1441;-69
2021/11/03 10:36:42;;;;;;;;;;;22.30;57.60;;;;;;5055393;28;1282;-69
2021/11/03 10:39:16;;;;;;;;;;;22.30;57.60;;;;;;5037192;28;1104;-69
2021/11/03 10:41:41;;;;;;;;;;;22.30;57.60;;;;;;5055051;28;1345;-69
2021/11/03 10:44:08;;;;;;;;;;;22.30;57.60;;;;;;5037274;28;1378;-69
2021/11/03 10:46:46;;;;;;;;;;;22.30;57.60;;;;;;5017253;28;1914;-69
2021/11/03 10:49:13;;;;;;;;;;;22.30;57.60;;;;;;5037730;28;1320;-69
2021/11/03 10:51:39;;;;;;;;;;;22.30;57.60;;;;;;5054685;28;1365;-69
2021/11/03 10:54:17;;;;;;;;;;;22.30;57.70;;;;;;5053999;28;1317;-69
2021/11/03 10:56:50;;;;;;;;;;;22.30;57.70;;;;;;5037177;28;1353;-69
2021/11/03 10:59:16;;;;;;;;;;;22.30;57.70;;;;;;5037262;28;1079;-69
2021/11/03 11:01:47;;;;;;;;;;;22.30;57.70;;;;;;5054393;28;1107;-69
2021/11/03 11:04:18;;;;;;;;;;;22.30;57.70;;;;;;5054747;28;1363;-69
2021/11/03 11:06:48;;;;;;;;;;;22.30;57.70;;;;;;5036815;28;1906;-69
2021/11/03 11:09:17;;;;;;;;;;;22.30;57.80;;;;;;5037116;28;1347;-69
2021/11/03 11:11:44;;;;;;;;;;;22.30;57.80;;;;;;5036834;28;1418;-69
2021/11/03 11:14:11;;;;;;;;;;;22.30;57.80;;;;;;5037105;28;1314;-70
2021/11/03 11:16:39;;;;;;;;;;;22.30;57.80;;;;;;5036667;28;1148;-70
2021/11/03 11:19:08;;;;;;;;;;;22.20;57.80;;;;;;5054528;28;1273;-70
2021/11/03 11:21:36;;;;;;;;;;;22.30;57.90;;;;;;5035938;28;1302;-70
2021/11/03 11:24:07;;;;;;;;;;;22.20;57.80;;;;;;5063691;28;1247;-70
2021/11/03 11:26:37;;;;;;;;;;;22.20;57.90;;;;;;5042067;28;1967;-70
2021/11/03 11:29:21;;;;;;;;;;;22.20;57.90;;;;;;5042271;28;1080;-70
2021/11/03 11:31:57;;;;;;;;;;;22.20;57.90;;;;;;5059125;28;1178;-71
2021/11/03 11:34:45;;;;;;;;;;;22.20;58.00;;;;;;5042007;28;1280;-70
2021/11/03 11:37:17;;;;;;;;;;;22.20;58.00;;;;;;5040141;28;1329;-70
2021/11/03 11:39:53;;;;;;;;;;;22.20;58.00;;;;;;5036424;28;1137;-71
2021/11/03 11:42:39;;;;;;;;;;;22.20;58.00;;;;;;5036706;28;1060;-71
2021/11/03 11:45:14;;;;;;;;;;;22.20;58.00;;;;;;5037752;28;1303;-70
2021/11/03 11:47:42;;;;;;;;;;;22.20;58.10;;;;;;5055911;28;1300;-71
2021/11/03 11:50:08;;;;;;;;;;;22.20;58.10;;;;;;5038475;28;1360;-71
2021/11/03 11:52:35;;;;;;;;;;;22.20;58.10;;;;;;5057855;28;1304;-70
2021/11/03 11:55:16;;;;;;;;;;;22.20;58.10;;;;;;5039848;28;1306;-70
2021/11/03 11:57:42;;;;;;;;;;;22.10;58.10;;;;;;5040255;28;1315;-71
2021/11/03 12:00:08;;;;;;;;;;;22.20;58.20;;;;;;5038778;28;1224;-71
2021/11/03 12:02:54;;;;;;;;;;;22.20;58.20;;;;;;5056456;28;1031;-70
2021/11/03 12:05:26;;;;;;;;;;;22.20;58.20;;;;;;5055207;28;1977;-69
2021/11/03 12:08:03;;;;;;;;;;;22.20;58.20;;;;;;5054163;28;1177;-71
2021/11/03 12:10:30;;;;;;;;;;;22.10;58.20;;;;;;5054055;28;1178;-71
2021/11/03 12:13:08;;;;;;;;;;;22.10;58.20;;;;;;5036978;28;1311;-71
2021/11/03 12:15:48;;;;;;;;;;;22.10;58.20;;;;;;5054577;28;1229;-70
2021/11/03 12:18:15;;;;;;;;;;;22.10;58.20;;;;;;5054373;28;1339;-70
2021/11/03 12:20:41;;;;;;;;;;;22.10;58.20;;;;;;5036493;28;1289;-69
2021/11/03 12:23:27;;;;;;;;;;;22.20;58.20;;;;;;5035603;28;1362;-70
2021/11/03 12:25:53;;;;;;;;;;;22.20;58.30;;;;;;5012856;28;1911;-70
2021/11/03 12:28:19;;;;;;;;;;;22.20;58.20;;;;;;5053827;28;1387;-70
2021/11/03 12:30:46;;;;;;;;;;;22.20;58.80;;;;;;5053919;28;1059;-70
2021/11/03 12:33:12;;;;;;;;;;;22.20;58.20;;;;;;5054179;28;1335;-70
2021/11/03 12:35:48;;;;;;;;;;;22.20;58.10;;;;;;5055068;28;1340;-71
2021/11/03 12:38:13;;;;;;;;;;;22.20;58.10;;;;;;5055070;28;1373;-70
2021/11/03 12:40:42;;;;;;;;;;;22.20;58.00;;;;;;5054771;28;1338;-69
2021/11/03 12:43:14;;;;;;;;;;;22.30;58.10;;;;;;5036243;28;1316;-70
2021/11/03 12:45:48;;;;;;;;;;;22.30;58.00;;;;;;5054301;28;1894;-70
2021/11/03 12:48:19;;;;;;;;;;;22.30;58.00;;;;;;5054857;28;1364;-70
2021/11/03 12:50:46;;;;;;;;;;;22.30;58.00;;;;;;5036913;28;1299;-71
2021/11/03 12:53:14;;;;;;;;;;;22.30;58.00;;;;;;5054976;28;1269;-70
2021/11/03 12:55:58;;;;;;;;;;;22.30;58.00;;;;;;5055107;28;1210;-71
2021/11/03 12:58:46;;;;;;;;;;;22.30;58.00;;;;;;5054380;28;1158;-71
2021/11/03 13:01:19;;;;;;;;;;;22.30;58.00;;;;;;5043414;28;1354;-70
2021/11/03 13:03:46;;;;;;;;;;;22.30;58.00;;;;;;5036299;28;1334;-71
2021/11/03 13:06:11;;;;;;;;;;;22.30;58.00;;;;;;5036295;28;2003;-71
2021/11/03 13:08:41;;;;;;;;;;;22.30;58.00;;;;;;5035799;28;1389;-70
2021/11/03 13:11:14;;;;;;;;;;;22.30;58.00;;;;;;5054040;28;1346;-70
2021/11/03 13:14:01;;;;;;;;;;;22.30;58.00;;;;;;5054237;28;1787;-71
2021/11/03 13:16:35;;;;;;;;;;;22.30;58.00;;;;;;5036455;28;1309;-70
2021/11/03 13:19:01;;;;;;;;;;;22.30;58.10;;;;;;5041248;28;1286;-69
2021/11/03 13:21:33;;;;;;;;;;;22.30;58.10;;;;;;5042372;28;1382;-70
2021/11/03 13:24:05;;;;;;;;;;;22.30;58.10;;;;;;5060112;28;1286;-70
2021/11/03 13:26:32;;;;;;;;;;;22.20;58.10;;;;;;5039594;28;2080;-70
2021/11/03 13:28:58;;;;;;;;;;;22.20;58.10;;;;;;5041164;28;2199;-70
2021/11/03 13:31:42;;;;;;;;;;;22.20;58.20;;;;;;5020075;28;1879;-70
2021/11/03 13:34:16;;;;;;;;;;;22.20;58.20;;;;;;5052878;28;1360;-70
2021/11/03 13:36:53;;;;;;;;;;;22.20;58.20;;;;;;5041815;28;1306;-69
2021/11/03 13:39:19;;;;;;;;;;;22.20;58.30;;;;;;5041498;28;1373;-71
2021/11/03 13:41:45;;;;;;;;;;;22.20;58.30;;;;;;5058974;28;1277;-71
2021/11/03 13:44:26;;;;;;;;;;;22.20;58.30;;;;;;5060291;28;1315;-70
2021/11/03 13:46:58;;;;;;;;;;;22.20;58.40;;;;;;5060667;28;1901;-70
2021/11/03 13:49:24;;;;;;;;;;;22.10;58.30;;;;;;5043235;28;1382;-70
2021/11/03 13:51:54;;;;;;;;;;;22.10;58.40;;;;;;5060893;28;1353;-69
2021/11/03 13:54:24;;;;;;;;;;;22.10;58.40;;;;;;5061983;28;1416;-69
2021/11/03 13:56:51;;;;;;;;;;;22.10;58.40;;;;;;5041032;28;1291;-69
2021/11/03 13:59:17;;;;;;;;;;;22.10;58.50;;;;;;5041463;28;1149;-69
2021/11/03 14:01:50;;;;;;;;;;;22.10;58.50;;;;;;5061360;28;1282;-69
2021/11/03 14:04:17;;;;;;;;;;;22.10;58.50;;;;;;5061826;28;1730;-69
2021/11/03 14:06:59;;;;;;;;;;;22.10;58.50;;;;;;5043926;28;1898;-68
2021/11/03 14:09:24;;;;;;;;;;;22.10;58.60;;;;;;5061526;28;1672;-68
2021/11/03 14:11:50;;;;;;;;;;;22.10;58.60;;;;;;5061611;28;1375;-69
2021/11/03 14:14:16;;;;;;;;;;;22.00;58.60;;;;;;5058060;28;1242;-69
2021/11/03 14:16:49;;;;;;;;;;;22.00;58.60;;;;;;5061593;28;1247;-69
2021/11/03 14:19:23;;;;;;;;;;;22.00;58.60;;;;;;5055281;28;1188;-69
2021/11/03 14:21:48;;;;;;;;;;;22.00;58.60;;;;;;5057780;28;1400;-69
2021/11/03 14:24:14;;;;;;;;;;;22.00;58.60;;;;;;5039239;28;1274;-69
2021/11/03 14:26:39;;;;;;;;;;;22.00;58.60;;;;;;5063937;28;1898;-71
2021/11/03 14:29:05;;;;;;;;;;;22.00;58.70;;;;;;5051756;28;2204;-72
2021/11/03 14:31:30;;;;;;;;;;;22.00;58.70;;;;;;5052526;28;1418;-70
2021/11/03 14:33:59;;;;;;;;;;;22.00;58.80;;;;;;5052123;28;1297;-66